sensor_id;sensor_type;location;lat;lon;timestamp;P1;durP1;ratioP1;P2;durP2;ratioP2
21120;SDS011;12519;43.318;21.898;2023-12-20T00:01:57;70.0;;;65.0;;
21120;SDS011;12519;43.318;21.898;2023-12-20T00:06:33;78.0;;;72.0;;
21120;SDS011;12519;43.318;21.898;2023-12-20T00:11:10;78.0;;;72.0;;
21120;SDS011;12519;43.318;21.898;2023-12-20T00:15:46;86.0;;;80.0;;
21120;SDS011;12519;43.318;21.898;2023-12-20T00:20:22;86.0;;;80.0;;
21120;SDS011;12519;43.318;21.898;2023-12-20T00:24:59;85.0;;;76.0;;
21120;SDS011;12519;43.318;21.898;2023-12-20T00:29:35;85.0;;;76.0;;
21120;SDS011;12519;43.318;21.898;2023-12-20T00:34:12;84.0;;;72.0;;
21120;SDS011;12519;43.318;21.898;2023-12-20T00:38:48;84.0;;;72.0;;
21120;SDS011;12519;43.318;21.898;2023-12-20T00:43:24;90.0;;;69.0;;
21120;SDS011;12519;43.318;21.898;2023-12-20T00:48:00;90.0;;;69.0;;
21120;SDS011;12519;43.318;21.898;2023-12-20T00:52:37;90.0;;;69.0;;
21120;SDS011;12519;43.318;21.898;2023-12-20T00:57:13;95.0;;;66.0;;
21120;SDS011;12519;43.318;21.898;2023-12-20T01:01:50;95.0;;;66.0;;
21120;SDS011;12519;43.318;21.898;2023-12-20T01:06:26;82.0;;;64.0;;
21120;SDS011;12519;43.318;21.898;2023-12-20T01:11:03;82.0;;;64.0;;
21120;SDS011;12519;43.318;21.898;2023-12-20T01:15:41;70.0;;;62.0;;
21120;SDS011;12519;43.318;21.898;2023-12-20T01:20:18;70.0;;;62.0;;
21120;SDS011;12519;43.318;21.898;2023-12-20T01:24:54;74.0;;;64.0;;
21120;SDS011;12519;43.318;21.898;2023-12-20T01:29:30;74.0;;;64.0;;
21120;SDS011;12519;43.318;21.898;2023-12-20T01:34:06;77.0;;;66.0;;
21120;SDS011;12519;43.318;21.898;2023-12-20T01:38:43;77.0;;;66.0;;
21120;SDS011;12519;43.318;21.898;2023-12-20T01:43:19;85.0;;;67.0;;
21120;SDS011;12519;43.318;21.898;2023-12-20T01:47:58;85.0;;;67.0;;
21120;SDS011;12519;43.318;21.898;2023-12-20T01:52:37;85.0;;;67.0;;
21120;SDS011;12519;43.318;21.898;2023-12-20T01:57:14;93.0;;;68.0;;
21120;SDS011;12519;43.318;21.898;2023-12-20T02:01:51;93.0;;;68.0;;
21120;SDS011;12519;43.318;21.898;2023-12-20T02:06:30;84.0;;;66.0;;
21120;SDS011;12519;43.318;21.898;2023-12-20T02:11:10;84.0;;;66.0;;
21120;SDS011;12519;43.318;21.898;2023-12-20T02:15:46;76.0;;;63.0;;
21120;SDS011;12519;43.318;21.898;2023-12-20T02:20:22;76.0;;;63.0;;
21120;SDS011;12519;43.318;21.898;2023-12-20T02:24:58;79.0;;;62.0;;
21120;SDS011;12519;43.318;21.898;2023-12-20T02:29:36;79.0;;;62.0;;
21120;SDS011;12519;43.318;21.898;2023-12-20T02:34:12;82.0;;;61.0;;
21120;SDS011;12519;43.318;21.898;2023-12-20T02:38:48;82.0;;;61.0;;
21120;SDS011;12519;43.318;21.898;2023-12-20T02:43:25;77.0;;;57.0;;
21120;SDS011;12519;43.318;21.898;2023-12-20T02:48:01;77.0;;;57.0;;
21120;SDS011;12519;43.318;21.898;2023-12-20T02:52:40;77.0;;;57.0;;
21120;SDS011;12519;43.318;21.898;2023-12-20T02:57:21;72.0;;;53.0;;
21120;SDS011;12519;43.318;21.898;2023-12-20T03:01:57;72.0;;;53.0;;
21120;SDS011;12519;43.318;21.898;2023-12-20T03:06:33;66.0;;;48.0;;
21120;SDS011;12519;43.318;21.898;2023-12-20T03:11:10;66.0;;;48.0;;
21120;SDS011;12519;43.318;21.898;2023-12-20T03:15:47;60.0;;;42.0;;
21120;SDS011;12519;43.318;21.898;2023-12-20T03:20:23;60.0;;;42.0;;
21120;SDS011;12519;43.318;21.898;2023-12-20T03:24:59;63.0;;;46.0;;
21120;SDS011;12519;43.318;21.898;2023-12-20T03:29:36;63.0;;;46.0;;
21120;SDS011;12519;43.318;21.898;2023-12-20T03:34:12;66.0;;;50.0;;
21120;SDS011;12519;43.318;21.898;2023-12-20T03:38:48;66.0;;;50.0;;
21120;SDS011;12519;43.318;21.898;2023-12-20T03:43:24;63.0;;;46.0;;
21120;SDS011;12519;43.318;21.898;2023-12-20T03:48:01;63.0;;;46.0;;
21120;SDS011;12519;43.318;21.898;2023-12-20T03:52:37;63.0;;;46.0;;
21120;SDS011;12519;43.318;21.898;2023-12-20T03:57:14;60.0;;;42.0;;
21120;SDS011;12519;43.318;21.898;2023-12-20T04:01:50;60.0;;;42.0;;
21120;SDS011;12519;43.318;21.898;2023-12-20T04:06:26;60.0;;;46.0;;
21120;SDS011;12519;43.318;21.898;2023-12-20T04:11:07;60.0;;;46.0;;
21120;SDS011;12519;43.318;21.898;2023-12-20T04:15:43;60.0;;;49.0;;
21120;SDS011;12519;43.318;21.898;2023-12-20T04:20:19;60.0;;;49.0;;
21120;SDS011;12519;43.318;21.898;2023-12-20T04:24:56;61.0;;;50.0;;
21120;SDS011;12519;43.318;21.898;2023-12-20T04:29:32;61.0;;;50.0;;
21120;SDS011;12519;43.318;21.898;2023-12-20T04:34:08;62.0;;;50.0;;
21120;SDS011;12519;43.318;21.898;2023-12-20T04:38:45;62.0;;;50.0;;
21120;SDS011;12519;43.318;21.898;2023-12-20T04:43:21;58.0;;;48.0;;
21120;SDS011;12519;43.318;21.898;2023-12-20T04:47:58;58.0;;;48.0;;
21120;SDS011;12519;43.318;21.898;2023-12-20T04:52:34;58.0;;;48.0;;
21120;SDS011;12519;43.318;21.898;2023-12-20T04:57:11;55.0;;;47.0;;
21120;SDS011;12519;43.318;21.898;2023-12-20T05:01:47;55.0;;;47.0;;
21120;SDS011;12519;43.318;21.898;2023-12-20T05:06:23;58.0;;;48.0;;
21120;SDS011;12519;43.318;21.898;2023-12-20T05:11:00;58.0;;;48.0;;
21120;SDS011;12519;43.318;21.898;2023-12-20T05:15:37;60.0;;;48.0;;
21120;SDS011;12519;43.318;21.898;2023-12-20T05:20:13;60.0;;;48.0;;
21120;SDS011;12519;43.318;21.898;2023-12-20T05:24:50;62.0;;;46.0;;
21120;SDS011;12519;43.318;21.898;2023-12-20T05:29:26;62.0;;;46.0;;
21120;SDS011;12519;43.318;21.898;2023-12-20T05:34:02;63.0;;;45.0;;
21120;SDS011;12519;43.318;21.898;2023-12-20T05:38:39;63.0;;;45.0;;
21120;SDS011;12519;43.318;21.898;2023-12-20T05:43:15;63.0;;;45.0;;
21120;SDS011;12519;43.318;21.898;2023-12-20T05:47:52;63.0;;;46.0;;
21120;SDS011;12519;43.318;21.898;2023-12-20T05:52:28;63.0;;;46.0;;
21120;SDS011;12519;43.318;21.898;2023-12-20T05:57:04;63.0;;;48.0;;
21120;SDS011;12519;43.318;21.898;2023-12-20T06:01:40;63.0;;;48.0;;
21120;SDS011;12519;43.318;21.898;2023-12-20T06:06:16;67.0;;;49.0;;
21120;SDS011;12519;43.318;21.898;2023-12-20T06:10:52;67.0;;;49.0;;
21120;SDS011;12519;43.318;21.898;2023-12-20T06:15:29;71.0;;;50.0;;
21120;SDS011;12519;43.318;21.898;2023-12-20T06:20:08;71.0;;;50.0;;
21120;SDS011;12519;43.318;21.898;2023-12-20T06:24:46;76.0;;;58.0;;
21120;SDS011;12519;43.318;21.898;2023-12-20T06:29:22;76.0;;;58.0;;
21120;SDS011;12519;43.318;21.898;2023-12-20T06:33:59;80.0;;;66.0;;
21120;SDS011;12519;43.318;21.898;2023-12-20T06:38:36;80.0;;;66.0;;
21120;SDS011;12519;43.318;21.898;2023-12-20T06:43:12;80.0;;;66.0;;
21120;SDS011;12519;43.318;21.898;2023-12-20T06:47:49;74.0;;;60.0;;
21120;SDS011;12519;43.318;21.898;2023-12-20T06:52:26;74.0;;;60.0;;
21120;SDS011;12519;43.318;21.898;2023-12-20T06:57:03;67.0;;;55.0;;
21120;SDS011;12519;43.318;21.898;2023-12-20T07:01:39;67.0;;;55.0;;
21120;SDS011;12519;43.318;21.898;2023-12-20T07:06:16;61.0;;;50.0;;
21120;SDS011;12519;43.318;21.898;2023-12-20T07:10:52;61.0;;;50.0;;
21120;SDS011;12519;43.318;21.898;2023-12-20T07:15:28;55.0;;;46.0;;
21120;SDS011;12519;43.318;21.898;2023-12-20T07:20:07;55.0;;;46.0;;
21120;SDS011;12519;43.318;21.898;2023-12-20T07:24:46;55.0;;;47.0;;
21120;SDS011;12519;43.318;21.898;2023-12-20T07:29:22;55.0;;;47.0;;
21120;SDS011;12519;43.318;21.898;2023-12-20T07:33:58;55.0;;;48.0;;
21120;SDS011;12519;43.318;21.898;2023-12-20T07:38:34;55.0;;;48.0;;
21120;SDS011;12519;43.318;21.898;2023-12-20T07:43:11;55.0;;;48.0;;
21120;SDS011;12519;43.318;21.898;2023-12-20T07:47:47;54.0;;;47.0;;
21120;SDS011;12519;43.318;21.898;2023-12-20T07:52:23;54.0;;;47.0;;
21120;SDS011;12519;43.318;21.898;2023-12-20T07:56:59;52.0;;;46.0;;
21120;SDS011;12519;43.318;21.898;2023-12-20T08:01:36;52.0;;;46.0;;
21120;SDS011;12519;43.318;21.898;2023-12-20T08:06:12;112.0;;;89.0;;
21120;SDS011;12519;43.318;21.898;2023-12-20T08:10:48;112.0;;;89.0;;
21120;SDS011;12519;43.318;21.898;2023-12-20T08:15:24;173.0;;;132.0;;
21120;SDS011;12519;43.318;21.898;2023-12-20T08:20:04;173.0;;;132.0;;
21120;SDS011;12519;43.318;21.898;2023-12-20T08:24:43;132.0;;;105.0;;
21120;SDS011;12519;43.318;21.898;2023-12-20T08:29:20;132.0;;;105.0;;
21120;SDS011;12519;43.318;21.898;2023-12-20T08:33:56;92.0;;;78.0;;
21120;SDS011;12519;43.318;21.898;2023-12-20T08:38:32;92.0;;;78.0;;
21120;SDS011;12519;43.318;21.898;2023-12-20T08:43:09;92.0;;;78.0;;
21120;SDS011;12519;43.318;21.898;2023-12-20T08:47:46;81.0;;;66.0;;
21120;SDS011;12519;43.318;21.898;2023-12-20T08:52:22;81.0;;;66.0;;
21120;SDS011;12519;43.318;21.898;2023-12-20T08:56:59;70.0;;;55.0;;
21120;SDS011;12519;43.318;21.898;2023-12-20T09:01:35;70.0;;;55.0;;
21120;SDS011;12519;43.318;21.898;2023-12-20T09:06:11;86.0;;;68.0;;
21120;SDS011;12519;43.318;21.898;2023-12-20T09:10:47;86.0;;;68.0;;
21120;SDS011;12519;43.318;21.898;2023-12-20T09:15:25;102.0;;;82.0;;
21120;SDS011;12519;43.318;21.898;2023-12-20T09:20:03;102.0;;;82.0;;
21120;SDS011;12519;43.318;21.898;2023-12-20T09:24:43;77.0;;;65.0;;
21120;SDS011;12519;43.318;21.898;2023-12-20T09:29:19;77.0;;;65.0;;
21120;SDS011;12519;43.318;21.898;2023-12-20T09:33:55;52.0;;;48.0;;
21120;SDS011;12519;43.318;21.898;2023-12-20T09:38:32;52.0;;;48.0;;
21120;SDS011;12519;43.318;21.898;2023-12-20T09:43:11;52.0;;;48.0;;
21120;SDS011;12519;43.318;21.898;2023-12-20T09:47:57;45.0;;;42.0;;
21120;SDS011;12519;43.318;21.898;2023-12-20T09:52:36;45.0;;;42.0;;
21120;SDS011;12519;43.318;21.898;2023-12-20T09:57:18;38.0;;;36.0;;
21120;SDS011;12519;43.318;21.898;2023-12-20T10:01:55;38.0;;;36.0;;
21120;SDS011;12519;43.318;21.898;2023-12-20T10:06:37;52.0;;;43.0;;
21120;SDS011;12519;43.318;21.898;2023-12-20T10:11:14;52.0;;;43.0;;
21120;SDS011;12519;43.318;21.898;2023-12-20T10:15:51;65.0;;;50.0;;
21120;SDS011;12519;43.318;21.898;2023-12-20T10:20:28;65.0;;;50.0;;
21120;SDS011;12519;43.318;21.898;2023-12-20T10:25:08;66.0;;;51.0;;
21120;SDS011;12519;43.318;21.898;2023-12-20T10:29:44;66.0;;;51.0;;
21120;SDS011;12519;43.318;21.898;2023-12-20T10:34:21;68.0;;;52.0;;
21120;SDS011;12519;43.318;21.898;2023-12-20T10:38:58;68.0;;;52.0;;
21120;SDS011;12519;43.318;21.898;2023-12-20T10:43:38;68.0;;;52.0;;
21120;SDS011;12519;43.318;21.898;2023-12-20T10:48:18;66.0;;;52.0;;
21120;SDS011;12519;43.318;21.898;2023-12-20T10:52:59;66.0;;;52.0;;
21120;SDS011;12519;43.318;21.898;2023-12-20T10:57:36;64.0;;;53.0;;
21120;SDS011;12519;43.318;21.898;2023-12-20T11:02:13;64.0;;;53.0;;
21120;SDS011;12519;43.318;21.898;2023-12-20T11:06:58;60.0;;;50.0;;
21120;SDS011;12519;43.318;21.898;2023-12-20T11:12:13;60.0;;;50.0;;
21120;SDS011;12519;43.318;21.898;2023-12-20T11:17:17;57.0;;;46.0;;
21120;SDS011;12519;43.318;21.898;2023-12-20T11:21:53;57.0;;;46.0;;
21120;SDS011;12519;43.318;21.898;2023-12-20T11:26:29;56.0;;;48.0;;
21120;SDS011;12519;43.318;21.898;2023-12-20T11:31:05;56.0;;;48.0;;
21120;SDS011;12519;43.318;21.898;2023-12-20T11:35:42;55.0;;;49.0;;
21120;SDS011;12519;43.318;21.898;2023-12-20T11:40:23;55.0;;;49.0;;
21120;SDS011;12519;43.318;21.898;2023-12-20T11:44:59;62.0;;;52.0;;
21120;SDS011;12519;43.318;21.898;2023-12-20T11:49:39;62.0;;;52.0;;
21120;SDS011;12519;43.318;21.898;2023-12-20T11:54:16;69.0;;;56.0;;
21120;SDS011;12519;43.318;21.898;2023-12-20T11:58:53;69.0;;;56.0;;
21120;SDS011;12519;43.318;21.898;2023-12-20T12:03:31;69.0;;;56.0;;
21120;SDS011;12519;43.318;21.898;2023-12-20T12:08:07;66.0;;;54.0;;
21120;SDS011;12519;43.318;21.898;2023-12-20T12:12:44;66.0;;;54.0;;
21120;SDS011;12519;43.318;21.898;2023-12-20T12:17:21;62.0;;;53.0;;
21120;SDS011;12519;43.318;21.898;2023-12-20T12:22:07;62.0;;;53.0;;
21120;SDS011;12519;43.318;21.898;2023-12-20T12:26:51;64.0;;;54.0;;
21120;SDS011;12519;43.318;21.898;2023-12-20T12:31:27;64.0;;;54.0;;
21120;SDS011;12519;43.318;21.898;2023-12-20T12:36:05;67.0;;;54.0;;
21120;SDS011;12519;43.318;21.898;2023-12-20T12:40:43;67.0;;;54.0;;
21120;SDS011;12519;43.318;21.898;2023-12-20T12:45:19;74.0;;;62.0;;
21120;SDS011;12519;43.318;21.898;2023-12-20T12:49:56;74.0;;;62.0;;
21120;SDS011;12519;43.318;21.898;2023-12-20T12:54:32;80.0;;;69.0;;
21120;SDS011;12519;43.318;21.898;2023-12-20T12:59:09;80.0;;;69.0;;
21120;SDS011;12519;43.318;21.898;2023-12-20T13:03:45;80.0;;;69.0;;
21120;SDS011;12519;43.318;21.898;2023-12-20T13:08:21;83.0;;;73.0;;
21120;SDS011;12519;43.318;21.898;2023-12-20T13:12:58;83.0;;;73.0;;
21120;SDS011;12519;43.318;21.898;2023-12-20T13:17:35;86.0;;;77.0;;
21120;SDS011;12519;43.318;21.898;2023-12-20T13:22:11;86.0;;;77.0;;
21120;SDS011;12519;43.318;21.898;2023-12-20T13:26:47;76.0;;;68.0;;
21120;SDS011;12519;43.318;21.898;2023-12-20T13:31:24;76.0;;;68.0;;
21120;SDS011;12519;43.318;21.898;2023-12-20T13:36:00;66.0;;;60.0;;
21120;SDS011;12519;43.318;21.898;2023-12-20T13:40:37;66.0;;;60.0;;
21120;SDS011;12519;43.318;21.898;2023-12-20T13:45:14;74.0;;;63.0;;
21120;SDS011;12519;43.318;21.898;2023-12-20T13:49:52;74.0;;;63.0;;
21120;SDS011;12519;43.318;21.898;2023-12-20T13:54:28;81.0;;;66.0;;
21120;SDS011;12519;43.318;21.898;2023-12-20T13:59:04;81.0;;;66.0;;
21120;SDS011;12519;43.318;21.898;2023-12-20T14:03:41;81.0;;;66.0;;
21120;SDS011;12519;43.318;21.898;2023-12-20T14:08:17;77.0;;;66.0;;
21120;SDS011;12519;43.318;21.898;2023-12-20T14:12:53;77.0;;;66.0;;
21120;SDS011;12519;43.318;21.898;2023-12-20T14:17:30;73.0;;;66.0;;
21120;SDS011;12519;43.318;21.898;2023-12-20T14:22:06;73.0;;;66.0;;
21120;SDS011;12519;43.318;21.898;2023-12-20T14:26:43;72.0;;;62.0;;
21120;SDS011;12519;43.318;21.898;2023-12-20T14:31:19;72.0;;;62.0;;
21120;SDS011;12519;43.318;21.898;2023-12-20T14:35:55;70.0;;;59.0;;
21120;SDS011;12519;43.318;21.898;2023-12-20T14:40:32;70.0;;;59.0;;
21120;SDS011;12519;43.318;21.898;2023-12-20T14:45:09;74.0;;;60.0;;
21120;SDS011;12519;43.318;21.898;2023-12-20T14:49:47;74.0;;;60.0;;
21120;SDS011;12519;43.318;21.898;2023-12-20T14:54:24;74.0;;;60.0;;
21120;SDS011;12519;43.318;21.898;2023-12-20T14:59:00;78.0;;;62.0;;
21120;SDS011;12519;43.318;21.898;2023-12-20T15:03:37;78.0;;;62.0;;
21120;SDS011;12519;43.318;21.898;2023-12-20T15:08:14;81.0;;;66.0;;
21120;SDS011;12519;43.318;21.898;2023-12-20T15:12:51;81.0;;;66.0;;
21120;SDS011;12519;43.318;21.898;2023-12-20T15:17:27;84.0;;;71.0;;
21120;SDS011;12519;43.318;21.898;2023-12-20T15:22:03;84.0;;;71.0;;
21120;SDS011;12519;43.318;21.898;2023-12-20T15:26:40;157.0;;;129.0;;
21120;SDS011;12519;43.318;21.898;2023-12-20T15:31:18;157.0;;;129.0;;
21120;SDS011;12519;43.318;21.898;2023-12-20T15:35:54;230.0;;;187.0;;
21120;SDS011;12519;43.318;21.898;2023-12-20T15:40:31;230.0;;;187.0;;
21120;SDS011;12519;43.318;21.898;2023-12-20T15:45:08;278.0;;;236.0;;
21120;SDS011;12519;43.318;21.898;2023-12-20T15:49:46;278.0;;;236.0;;
21120;SDS011;12519;43.318;21.898;2023-12-20T15:54:22;278.0;;;236.0;;
21120;SDS011;12519;43.318;21.898;2023-12-20T15:58:58;327.0;;;284.0;;
21120;SDS011;12519;43.318;21.898;2023-12-20T16:03:35;327.0;;;284.0;;
21120;SDS011;12519;43.318;21.898;2023-12-20T16:08:11;301.0;;;261.0;;
21120;SDS011;12519;43.318;21.898;2023-12-20T16:12:48;301.0;;;261.0;;
21120;SDS011;12519;43.318;21.898;2023-12-20T16:17:24;275.0;;;238.0;;
21120;SDS011;12519;43.318;21.898;2023-12-20T16:22:01;275.0;;;238.0;;
21120;SDS011;12519;43.318;21.898;2023-12-20T16:26:37;278.0;;;238.0;;
21120;SDS011;12519;43.318;21.898;2023-12-20T16:31:13;278.0;;;238.0;;
21120;SDS011;12519;43.318;21.898;2023-12-20T16:35:50;280.0;;;237.0;;
21120;SDS011;12519;43.318;21.898;2023-12-20T16:40:26;280.0;;;237.0;;
21120;SDS011;12519;43.318;21.898;2023-12-20T16:45:04;290.0;;;244.0;;
21120;SDS011;12519;43.318;21.898;2023-12-20T16:49:43;290.0;;;244.0;;
21120;SDS011;12519;43.318;21.898;2023-12-20T16:54:20;290.0;;;244.0;;
21120;SDS011;12519;43.318;21.898;2023-12-20T16:58:56;301.0;;;252.0;;
21120;SDS011;12519;43.318;21.898;2023-12-20T17:03:32;301.0;;;252.0;;
21120;SDS011;12519;43.318;21.898;2023-12-20T17:08:08;311.0;;;253.0;;
21120;SDS011;12519;43.318;21.898;2023-12-20T17:12:45;311.0;;;253.0;;
21120;SDS011;12519;43.318;21.898;2023-12-20T17:17:21;321.0;;;254.0;;
21120;SDS011;12519;43.318;21.898;2023-12-20T17:21:58;321.0;;;254.0;;
21120;SDS011;12519;43.318;21.898;2023-12-20T17:26:34;277.0;;;224.0;;
21120;SDS011;12519;43.318;21.898;2023-12-20T17:31:10;277.0;;;224.0;;
21120;SDS011;12519;43.318;21.898;2023-12-20T17:35:47;233.0;;;193.0;;
21120;SDS011;12519;43.318;21.898;2023-12-20T17:40:23;233.0;;;193.0;;
21120;SDS011;12519;43.318;21.898;2023-12-20T17:45:00;233.0;;;193.0;;
21120;SDS011;12519;43.318;21.898;2023-12-20T17:49:36;216.0;;;176.0;;
21120;SDS011;12519;43.318;21.898;2023-12-20T17:54:13;216.0;;;176.0;;
21120;SDS011;12519;43.318;21.898;2023-12-20T17:58:49;200.0;;;160.0;;
21120;SDS011;12519;43.318;21.898;2023-12-20T18:03:26;200.0;;;160.0;;
21120;SDS011;12519;43.318;21.898;2023-12-20T18:08:03;221.0;;;182.0;;
21120;SDS011;12519;43.318;21.898;2023-12-20T18:12:41;221.0;;;182.0;;
21120;SDS011;12519;43.318;21.898;2023-12-20T18:17:17;242.0;;;204.0;;
21120;SDS011;12519;43.318;21.898;2023-12-20T18:21:54;242.0;;;204.0;;
21120;SDS011;12519;43.318;21.898;2023-12-20T18:26:31;248.0;;;213.0;;
21120;SDS011;12519;43.318;21.898;2023-12-20T18:31:07;248.0;;;213.0;;
21120;SDS011;12519;43.318;21.898;2023-12-20T18:35:43;255.0;;;222.0;;
21120;SDS011;12519;43.318;21.898;2023-12-20T18:40:20;255.0;;;222.0;;
21120;SDS011;12519;43.318;21.898;2023-12-20T18:44:57;255.0;;;222.0;;
21120;SDS011;12519;43.318;21.898;2023-12-20T18:49:33;262.0;;;218.0;;
21120;SDS011;12519;43.318;21.898;2023-12-20T18:54:10;262.0;;;218.0;;
21120;SDS011;12519;43.318;21.898;2023-12-20T18:58:47;270.0;;;215.0;;
21120;SDS011;12519;43.318;21.898;2023-12-20T19:03:23;270.0;;;215.0;;
21120;SDS011;12519;43.318;21.898;2023-12-20T19:07:59;248.0;;;201.0;;
21120;SDS011;12519;43.318;21.898;2023-12-20T19:12:36;248.0;;;201.0;;
21120;SDS011;12519;43.318;21.898;2023-12-20T19:17:12;225.0;;;187.0;;
21120;SDS011;12519;43.318;21.898;2023-12-20T19:21:49;225.0;;;187.0;;
21120;SDS011;12519;43.318;21.898;2023-12-20T19:26:25;222.0;;;186.0;;
21120;SDS011;12519;43.318;21.898;2023-12-20T19:31:02;222.0;;;186.0;;
21120;SDS011;12519;43.318;21.898;2023-12-20T19:35:39;218.0;;;185.0;;
21120;SDS011;12519;43.318;21.898;2023-12-20T19:40:15;218.0;;;185.0;;
21120;SDS011;12519;43.318;21.898;2023-12-20T19:44:52;218.0;;;185.0;;
21120;SDS011;12519;43.318;21.898;2023-12-20T19:49:28;160.0;;;138.0;;
21120;SDS011;12519;43.318;21.898;2023-12-20T19:54:04;160.0;;;138.0;;
21120;SDS011;12519;43.318;21.898;2023-12-20T19:58:41;102.0;;;90.0;;
21120;SDS011;12519;43.318;21.898;2023-12-20T20:03:17;102.0;;;90.0;;
21120;SDS011;12519;43.318;21.898;2023-12-20T20:07:53;82.0;;;71.0;;
21120;SDS011;12519;43.318;21.898;2023-12-20T20:12:30;82.0;;;71.0;;
21120;SDS011;12519;43.318;21.898;2023-12-20T20:17:06;62.0;;;52.0;;
21120;SDS011;12519;43.318;21.898;2023-12-20T20:21:43;62.0;;;52.0;;
21120;SDS011;12519;43.318;21.898;2023-12-20T20:26:20;67.0;;;58.0;;
21120;SDS011;12519;43.318;21.898;2023-12-20T20:30:56;67.0;;;58.0;;
21120;SDS011;12519;43.318;21.898;2023-12-20T20:35:33;72.0;;;63.0;;
21120;SDS011;12519;43.318;21.898;2023-12-20T20:40:10;72.0;;;63.0;;
21120;SDS011;12519;43.318;21.898;2023-12-20T20:44:46;72.0;;;63.0;;
21120;SDS011;12519;43.318;21.898;2023-12-20T20:49:22;76.0;;;63.0;;
21120;SDS011;12519;43.318;21.898;2023-12-20T20:53:59;76.0;;;63.0;;
21120;SDS011;12519;43.318;21.898;2023-12-20T20:58:36;80.0;;;63.0;;
21120;SDS011;12519;43.318;21.898;2023-12-20T21:03:13;80.0;;;63.0;;
21120;SDS011;12519;43.318;21.898;2023-12-20T21:07:49;82.0;;;66.0;;
21120;SDS011;12519;43.318;21.898;2023-12-20T21:12:25;82.0;;;66.0;;
21120;SDS011;12519;43.318;21.898;2023-12-20T21:17:02;83.0;;;68.0;;
21120;SDS011;12519;43.318;21.898;2023-12-20T21:21:39;83.0;;;68.0;;
21120;SDS011;12519;43.318;21.898;2023-12-20T21:26:16;73.0;;;61.0;;
21120;SDS011;12519;43.318;21.898;2023-12-20T21:30:52;73.0;;;61.0;;
21120;SDS011;12519;43.318;21.898;2023-12-20T21:35:28;63.0;;;54.0;;
21120;SDS011;12519;43.318;21.898;2023-12-20T21:40:07;63.0;;;54.0;;
21120;SDS011;12519;43.318;21.898;2023-12-20T21:44:46;63.0;;;54.0;;
21120;SDS011;12519;43.318;21.898;2023-12-20T21:49:22;66.0;;;53.0;;
21120;SDS011;12519;43.318;21.898;2023-12-20T21:53:59;66.0;;;53.0;;
21120;SDS011;12519;43.318;21.898;2023-12-20T21:58:36;69.0;;;52.0;;
21120;SDS011;12519;43.318;21.898;2023-12-20T22:03:13;69.0;;;52.0;;
21120;SDS011;12519;43.318;21.898;2023-12-20T22:07:49;69.0;;;55.0;;
21120;SDS011;12519;43.318;21.898;2023-12-20T22:12:26;69.0;;;55.0;;
21120;SDS011;12519;43.318;21.898;2023-12-20T22:17:03;69.0;;;58.0;;
21120;SDS011;12519;43.318;21.898;2023-12-20T22:21:39;69.0;;;58.0;;
21120;SDS011;12519;43.318;21.898;2023-12-20T22:26:15;68.0;;;56.0;;
21120;SDS011;12519;43.318;21.898;2023-12-20T22:30:52;68.0;;;56.0;;
21120;SDS011;12519;43.318;21.898;2023-12-20T22:35:28;68.0;;;56.0;;
21120;SDS011;12519;43.318;21.898;2023-12-20T22:40:06;66.0;;;54.0;;
21120;SDS011;12519;43.318;21.898;2023-12-20T22:44:47;66.0;;;54.0;;
21120;SDS011;12519;43.318;21.898;2023-12-20T22:49:23;66.0;;;54.0;;
21120;SDS011;12519;43.318;21.898;2023-12-20T22:54:00;66.0;;;54.0;;
21120;SDS011;12519;43.318;21.898;2023-12-20T22:58:37;66.0;;;54.0;;
21120;SDS011;12519;43.318;21.898;2023-12-20T23:03:14;66.0;;;54.0;;
21120;SDS011;12519;43.318;21.898;2023-12-20T23:07:50;62.0;;;48.0;;
21120;SDS011;12519;43.318;21.898;2023-12-20T23:12:27;62.0;;;48.0;;
21120;SDS011;12519;43.318;21.898;2023-12-20T23:17:03;59.0;;;41.0;;
21120;SDS011;12519;43.318;21.898;2023-12-20T23:21:39;59.0;;;41.0;;
21120;SDS011;12519;43.318;21.898;2023-12-20T23:26:15;58.0;;;41.0;;
21120;SDS011;12519;43.318;21.898;2023-12-20T23:30:51;58.0;;;41.0;;
21120;SDS011;12519;43.318;21.898;2023-12-20T23:35:28;58.0;;;41.0;;
21120;SDS011;12519;43.318;21.898;2023-12-20T23:40:06;58.0;;;41.0;;
21120;SDS011;12519;43.318;21.898;2023-12-20T23:44:43;58.0;;;41.0;;
21120;SDS011;12519;43.318;21.898;2023-12-20T23:49:20;60.0;;;43.0;;
21120;SDS011;12519;43.318;21.898;2023-12-20T23:53:56;60.0;;;43.0;;
21120;SDS011;12519;43.318;21.898;2023-12-20T23:58:33;61.0;;;45.0;;
